Main page
METAR-TAF:

METAR-TAF

Airports :

Exeter Airport

Exeter, England

latitude: 50-44N, longitude: 003-25W, elevation: 30 m

Current weather observation

The report was made 29 minutes ago, at 00:50 UTC
Wind 8 kt from the South/Southwest
Temperature 5°C
Humidity 87%
Pressure 1021 hPa
Visibility 10 km or more
Scattered clouds at a height of 2000 ft

METAR: EGTE 180050Z 21008KT 9999 SCT020 05/03 Q1021

Time: 01:19 (01:19 UTC)

Forecast

The report was made 2 hours and 19 minutes ago, at 23:00 UTC
Forecast valid from 18 at 00 UTC to 18 at 04 UTC
Wind 12 kt from the Southwest
Visibility 10 km or more
Scattered clouds at a height of 2500 ft
Probability 30% :
Temporary
from 18 at 00 UTC to 18 at 04 UTC
Wind 18 kt from the West/Southwest with gusts up to 30 kt
Visibility: 6000 m
rain showers

TAF: EGTE 172300Z 1800/1804 23012KT 9999 SCT025 PROB30 TEMPO 1800/1804 25018G30KT 6000 SHRA

Weather observations and forecasts of more than 4000 airports (METAR and TAF reports).

The available stations are represented by yellow and red dots on the map.

Hover mouse over dot to see the name of the station.

Then click to see weather observations and forecasts.

To change the map : click on the green buttons with a black cross to zoom in, on the green button with a dash to zoom out, or on the green arrows for adjacent maps.


METAR-TAF: